Time;durP1;ratioP1;P1;durP2;ratioP2;P2;SDS_P1;SDS_P2;PMS_P1;PMS_P2;Temp;Humidity;BMP_temperature;BMP_pressure;BME280_temperature;BME280_humidity;BME280_pressure;Samples;Min_cycle;Max_cycle;Signal;HPM_P1;HPM_P2
2022/02/23 00:02:25;;;;;;;4.60;2.07;;;8.60;76.90;;;;;;5051137;28;20456;-49
2022/02/23 00:04:51;;;;;;;4.77;2.00;;;8.60;77.40;;;;;;5052324;28;20500;-49
2022/02/23 00:07:18;;;;;;;5.20;1.40;;;8.60;77.40;;;;;;5043507;28;20477;-49
2022/02/23 00:09:45;;;;;;;3.87;1.30;;;8.60;77.40;;;;;;5040998;28;20466;-49
2022/02/23 00:12:12;;;;;;;10.43;1.90;;;8.60;76.70;;;;;;5037146;28;20553;-49
2022/02/23 00:14:40;;;;;;;3.07;1.40;;;8.60;76.50;;;;;;5055152;28;20474;-49
2022/02/23 00:17:07;;;;;;;5.20;1.33;;;8.50;77.10;;;;;;5057352;28;20499;-49
2022/02/23 00:19:33;;;;;;;6.50;2.20;;;8.50;76.80;;;;;;5056123;28;20827;-49
2022/02/23 00:22:01;;;;;;;18.10;3.63;;;8.50;76.30;;;;;;5059503;28;20552;-49
2022/02/23 00:24:27;;;;;;;11.07;1.80;;;8.50;76.30;;;;;;5056003;28;20470;-49
2022/02/23 00:26:54;;;;;;;5.13;2.03;;;8.50;76.30;;;;;;5057047;28;20465;-49
2022/02/23 00:29:21;;;;;;;5.40;1.60;;;8.50;77.10;;;;;;5058353;28;20461;-49
2022/02/23 00:31:48;;;;;;;8.10;2.37;;;8.50;76.80;;;;;;5053757;28;20484;-49
2022/02/23 00:34:14;;;;;;;9.60;2.00;;;8.50;77.10;;;;;;5055977;28;21153;-49
2022/02/23 00:36:41;;;;;;;4.77;1.77;;;8.50;77.10;;;;;;5054704;28;20579;-49
2022/02/23 00:39:14;;;;;;;3.83;1.87;;;8.40;77.70;;;;;;5058139;28;20529;-49
2022/02/23 00:41:41;;;;;;;5.67;2.23;;;8.50;77.50;;;;;;5060008;28;20458;-49
2022/02/23 00:44:07;;;;;;;5.20;2.20;;;8.50;77.90;;;;;;5056681;28;21013;-49
2022/02/23 00:46:34;;;;;;;7.50;1.90;;;8.40;77.80;;;;;;5057588;28;20486;-49
2022/02/23 00:49:01;;;;;;;3.80;2.27;;;8.40;78.00;;;;;;5059101;28;20454;-49
2022/02/23 00:51:28;;;;;;;5.23;2.60;;;8.40;78.40;;;;;;5036478;28;20459;-49
2022/02/23 00:53:55;;;;;;;5.13;1.90;;;8.40;78.40;;;;;;5054516;28;20729;-49
2022/02/23 00:56:22;;;;;;;4.53;2.40;;;8.40;78.70;;;;;;5053396;28;20486;-49
2022/02/23 00:58:48;;;;;;;3.93;1.87;;;8.40;78.80;;;;;;5037614;28;20500;-49
2022/02/23 01:01:15;;;;;;;5.67;2.77;;;8.40;79.00;;;;;;5058346;28;20455;-49
2022/02/23 01:03:42;;;;;;;4.07;2.10;;;8.40;79.10;;;;;;5055785;28;20457;-50
2022/02/23 01:06:09;;;;;;;8.00;1.97;;;8.40;79.10;;;;;;5054728;28;20473;-49
2022/02/23 01:08:36;;;;;;;10.47;2.43;;;8.40;79.40;;;;;;5040157;28;20556;-49
2022/02/23 01:11:04;;;;;;;6.90;2.43;;;8.40;79.40;;;;;;5042747;28;20590;-49
2022/02/23 01:13:31;;;;;;;8.97;2.00;;;8.40;79.40;;;;;;5054859;28;20578;-49
2022/02/23 01:15:58;;;;;;;9.30;1.90;;;8.30;79.20;;;;;;5044034;28;20564;-49
2022/02/23 01:18:25;;;;;;;5.70;2.43;;;8.40;78.80;;;;;;5055448;28;20561;-49
2022/02/23 01:20:52;;;;;;;11.10;1.90;;;8.40;78.90;;;;;;5054319;28;21039;-49
2022/02/23 01:23:19;;;;;;;6.30;2.13;;;8.30;79.10;;;;;;5052663;28;20469;-49
2022/02/23 01:25:46;;;;;;;9.73;3.17;;;8.30;79.20;;;;;;5053220;28;21406;-49
2022/02/23 01:28:12;;;;;;;7.20;2.43;;;8.30;79.10;;;;;;5054240;28;20455;-49
2022/02/23 01:30:39;;;;;;;6.67;2.03;;;8.30;79.20;;;;;;5056367;28;20468;-49
2022/02/23 01:33:06;;;;;;;5.37;1.97;;;8.30;79.20;;;;;;5058423;28;21033;-49
2022/02/23 01:35:33;;;;;;;8.20;2.43;;;8.20;79.30;;;;;;5037013;28;20466;-49
2022/02/23 01:38:03;;;;;;;7.83;3.07;;;8.20;79.40;;;;;;5037916;28;20457;-49
2022/02/23 01:40:30;;;;;;;3.03;2.50;;;8.10;79.40;;;;;;5054832;28;20455;-49
2022/02/23 01:42:56;;;;;;;5.97;2.93;;;8.10;79.40;;;;;;5053474;28;20554;-49
2022/02/23 01:45:23;;;;;;;6.77;3.17;;;8.10;79.50;;;;;;5045571;28;20557;-49
2022/02/23 01:47:50;;;;;;;7.70;2.27;;;8.10;79.50;;;;;;5040977;28;20528;-49
2022/02/23 01:50:17;;;;;;;8.20;2.10;;;8.10;79.50;;;;;;5035598;28;20465;-49
2022/02/23 01:52:44;;;;;;;3.67;2.50;;;8.10;79.40;;;;;;5050957;28;20454;-49
2022/02/23 01:55:12;;;;;;;7.40;2.40;;;8.10;79.60;;;;;;5035284;28;20449;-49
2022/02/23 01:57:39;;;;;;;4.60;2.30;;;8.10;79.50;;;;;;5033658;28;20479;-49
2022/02/23 02:00:12;;;;;;;4.37;2.30;;;8.10;79.40;;;;;;5054543;28;20470;-49
2022/02/23 02:02:39;;;;;;;4.30;1.70;;;8.10;79.50;;;;;;5053170;28;20552;-49
2022/02/23 02:05:06;;;;;;;8.57;2.73;;;8.00;79.60;;;;;;5056027;28;20462;-49
2022/02/23 02:07:33;;;;;;;8.90;2.50;;;8.10;79.40;;;;;;5058727;28;20496;-49
2022/02/23 02:10:00;;;;;;;8.23;2.17;;;8.00;79.50;;;;;;5055246;28;22050;-49
2022/02/23 02:12:27;;;;;;;6.97;1.93;;;8.10;79.70;;;;;;5053726;28;21061;-49
2022/02/23 02:14:54;;;;;;;10.87;2.57;;;8.10;79.10;;;;;;5034570;28;20472;-49
2022/02/23 02:17:23;;;;;;;5.33;1.90;;;8.00;79.20;;;;;;5046160;28;20587;-49
2022/02/23 02:19:50;;;;;;;5.30;2.00;;;8.00;79.00;;;;;;5054094;28;21209;-49
2022/02/23 02:22:17;;;;;;;9.60;1.77;;;8.00;79.20;;;;;;5036081;28;21021;-49
2022/02/23 02:24:44;;;;;;;4.90;2.20;;;8.00;79.40;;;;;;5020792;28;20939;-49
2022/02/23 02:27:13;;;;;;;3.77;1.67;;;8.00;79.30;;;;;;5058816;28;20484;-49
2022/02/23 02:29:41;;;;;;;4.67;1.80;;;7.90;79.30;;;;;;5035953;28;20543;-49
2022/02/23 02:32:10;;;;;;;4.93;2.00;;;7.90;79.50;;;;;;5055254;28;20469;-49
2022/02/23 02:34:37;;;;;;;3.23;1.90;;;7.90;79.20;;;;;;5054272;28;21232;-49
2022/02/23 02:37:05;;;;;;;5.10;1.60;;;7.90;79.30;;;;;;5052511;28;20486;-49
2022/02/23 02:39:34;;;;;;;5.50;1.90;;;7.90;79.40;;;;;;5036938;28;20461;-49
2022/02/23 02:42:03;;;;;;;7.60;1.73;;;7.90;79.40;;;;;;5054007;28;20485;-49
2022/02/23 02:44:30;;;;;;;14.23;4.43;;;7.90;79.40;;;;;;5041648;28;20466;-49
2022/02/23 02:46:57;;;;;;;8.60;2.30;;;7.90;79.20;;;;;;5035007;28;20938;-49
2022/02/23 02:49:24;;;;;;;4.20;1.70;;;7.80;79.20;;;;;;5052324;28;20982;-49
2022/02/23 02:51:51;;;;;;;6.10;2.30;;;7.80;79.50;;;;;;5051435;28;20989;-49
2022/02/23 02:54:18;;;;;;;9.07;4.10;;;7.80;79.60;;;;;;5053032;28;20455;-49
2022/02/23 02:56:45;;;;;;;4.87;2.07;;;7.80;79.70;;;;;;5037481;28;20863;-49
2022/02/23 02:59:12;;;;;;;7.83;2.47;;;7.80;79.30;;;;;;5053502;28;20459;-49
2022/02/23 03:01:38;;;;;;;5.07;2.33;;;7.80;79.50;;;;;;5063039;28;20493;-49
2022/02/23 03:04:07;;;;;;;4.60;2.17;;;7.70;79.60;;;;;;5036951;28;20465;-49
2022/02/23 03:06:35;;;;;;;6.83;2.30;;;7.70;79.70;;;;;;5035730;28;20469;-49
2022/02/23 03:09:04;;;;;;;4.80;1.90;;;7.70;79.60;;;;;;5051128;28;21116;-49
2022/02/23 03:11:31;;;;;;;6.67;2.13;;;7.70;79.60;;;;;;5051181;28;20465;-49
2022/02/23 03:13:58;;;;;;;7.67;2.33;;;7.60;79.60;;;;;;5054116;28;20462;-49
2022/02/23 03:16:25;;;;;;;7.03;2.10;;;7.60;79.50;;;;;;5053202;28;20481;-49
2022/02/23 03:18:52;;;;;;;7.67;1.87;;;7.50;79.60;;;;;;5051902;28;20462;-49
2022/02/23 03:21:19;;;;;;;5.33;2.00;;;7.50;79.90;;;;;;5036392;28;21018;-49
2022/02/23 03:23:46;;;;;;;7.90;2.60;;;7.50;79.90;;;;;;5056447;28;20459;-49
2022/02/23 03:26:13;;;;;;;3.23;2.23;;;7.50;80.00;;;;;;5051481;28;20540;-51
2022/02/23 03:28:41;;;;;;;4.33;2.17;;;7.50;80.00;;;;;;5048673;28;20461;-51
2022/02/23 03:31:09;;;;;;;2.50;1.50;;;7.40;80.00;;;;;;5049816;28;21057;-51
2022/02/23 03:33:43;;;;;;;3.70;1.70;;;7.40;80.10;;;;;;5028584;28;20982;-51
2022/02/23 03:36:15;;;;;;;5.50;2.00;;;7.40;80.10;;;;;;5028534;28;20533;-51
2022/02/23 03:38:43;;;;;;;4.80;1.90;;;7.40;80.10;;;;;;5031391;28;20486;-51
2022/02/23 03:41:11;;;;;;;6.20;1.90;;;7.30;80.20;;;;;;5035330;28;20464;-51
2022/02/23 03:43:38;;;;;;;9.97;2.13;;;7.30;80.30;;;;;;5035395;28;20446;-51
2022/02/23 03:46:06;;;;;;;7.03;3.03;;;7.30;80.30;;;;;;5051256;28;21025;-50
2022/02/23 03:48:33;;;;;;;4.70;2.00;;;7.20;80.30;;;;;;5052285;28;20820;-51
2022/02/23 03:51:00;;;;;;;6.70;2.10;;;7.20;80.30;;;;;;5054272;28;21624;-49
2022/02/23 03:53:27;;;;;;;6.90;1.67;;;7.20;80.30;;;;;;5058758;28;20473;-49
2022/02/23 03:55:53;;;;;;;4.83;2.00;;;7.10;80.40;;;;;;5056138;28;20454;-49
2022/02/23 03:58:21;;;;;;;3.73;1.50;;;7.10;80.40;;;;;;5040245;28;20464;-49
2022/02/23 04:00:48;;;;;;;6.93;2.00;;;7.10;80.50;;;;;;5059713;28;20459;-49
2022/02/23 04:03:15;;;;;;;6.90;2.03;;;7.10;80.50;;;;;;5040343;28;20511;-49
2022/02/23 04:05:42;;;;;;;5.50;2.50;;;7.00;80.50;;;;;;5038062;28;20540;-49
2022/02/23 04:08:10;;;;;;;13.90;2.67;;;7.00;80.40;;;;;;5059860;28;20461;-49
2022/02/23 04:10:36;;;;;;;5.17;2.27;;;7.00;80.40;;;;;;5053413;28;20455;-49
2022/02/23 04:13:04;;;;;;;7.53;2.00;;;6.90;80.40;;;;;;5057716;28;21005;-49
2022/02/23 04:15:31;;;;;;;5.60;2.70;;;6.90;80.60;;;;;;5055733;28;20911;-49
2022/02/23 04:17:58;;;;;;;8.90;2.53;;;6.80;80.70;;;;;;5039796;28;20520;-49
2022/02/23 04:20:25;;;;;;;8.93;2.33;;;6.80;80.80;;;;;;5039899;28;20497;-49
2022/02/23 04:22:52;;;;;;;7.80;2.17;;;6.80;80.80;;;;;;5057725;28;20461;-49
2022/02/23 04:25:18;;;;;;;7.03;2.20;;;6.80;80.80;;;;;;5060135;28;20544;-49
2022/02/23 04:27:48;;;;;;;6.33;2.80;;;6.70;80.80;;;;;;5054793;28;20471;-49
2022/02/23 04:30:15;;;;;;;10.77;2.60;;;6.70;80.80;;;;;;5043799;28;20545;-49
2022/02/23 04:32:42;;;;;;;5.33;1.73;;;6.70;80.70;;;;;;5055169;28;20486;-49
2022/02/23 04:35:09;;;;;;;6.33;2.60;;;6.70;80.70;;;;;;5040115;28;20958;-49
2022/02/23 04:37:35;;;;;;;3.67;2.13;;;6.70;80.70;;;;;;5059062;28;20482;-49
2022/02/23 04:40:03;;;;;;;5.50;2.00;;;6.60;80.70;;;;;;5039071;28;20522;-49
2022/02/23 04:42:30;;;;;;;5.23;1.83;;;6.60;80.60;;;;;;5057664;28;20461;-49
2022/02/23 04:45:00;;;;;;;8.60;2.30;;;6.60;80.50;;;;;;5037088;28;20472;-49
2022/02/23 04:47:31;;;;;;;7.43;2.33;;;6.60;80.50;;;;;;5056396;28;20840;-49
2022/02/23 04:49:58;;;;;;;5.83;1.87;;;6.50;80.50;;;;;;5038911;28;20461;-48
2022/02/23 04:52:26;;;;;;;8.70;2.37;;;6.50;80.40;;;;;;5050143;28;20466;-49
2022/02/23 04:54:55;;;;;;;12.97;2.30;;;6.50;80.50;;;;;;5054536;28;20453;-49
2022/02/23 04:57:22;;;;;;;5.03;2.10;;;6.50;80.40;;;;;;5053222;28;20489;-49
2022/02/23 04:59:50;;;;;;;5.60;1.90;;;6.50;80.40;;;;;;5037065;28;20474;-49
2022/02/23 05:02:17;;;;;;;4.83;2.80;;;6.50;80.30;;;;;;5057436;28;20993;-48
2022/02/23 05:04:44;;;;;;;4.77;1.53;;;6.50;80.20;;;;;;5041721;28;20536;-49
2022/02/23 05:07:13;;;;;;;6.43;2.00;;;6.50;80.30;;;;;;5055277;28;20574;-49
2022/02/23 05:09:40;;;;;;;8.50;2.20;;;6.40;80.30;;;;;;5053020;28;20568;-49
2022/02/23 05:12:08;;;;;;;7.50;1.83;;;6.40;80.30;;;;;;5037082;28;20466;-49
2022/02/23 05:14:35;;;;;;;6.70;2.30;;;6.40;80.50;;;;;;5054647;28;20462;-48
2022/02/23 05:17:03;;;;;;;7.80;2.20;;;6.30;80.70;;;;;;5053762;28;20486;-49
2022/02/23 05:19:31;;;;;;;5.03;1.73;;;6.40;80.40;;;;;;5035545;28;20469;-48
2022/02/23 05:21:59;;;;;;;4.73;1.77;;;6.30;80.70;;;;;;5056235;28;21338;-49
2022/02/23 05:24:28;;;;;;;3.93;2.13;;;6.30;80.70;;;;;;5055689;28;20959;-49
2022/02/23 05:26:56;;;;;;;7.87;2.93;;;6.20;80.70;;;;;;5054201;28;20466;-49
2022/02/23 05:29:23;;;;;;;7.60;3.43;;;6.20;80.70;;;;;;5034381;28;20986;-49
2022/02/23 05:31:50;;;;;;;7.07;2.17;;;6.10;80.70;;;;;;5041723;28;20454;-48
2022/02/23 05:34:17;;;;;;;6.27;2.80;;;6.10;80.80;;;;;;5060167;28;20512;-49
2022/02/23 05:36:45;;;;;;;10.00;2.93;;;6.10;80.80;;;;;;5035850;28;20573;-49
2022/02/23 05:39:11;;;;;;;7.77;2.33;;;6.20;80.70;;;;;;5053897;28;20457;-49
2022/02/23 05:41:38;;;;;;;7.03;2.63;;;6.20;80.70;;;;;;5054464;28;20549;-49
2022/02/23 05:44:05;;;;;;;6.00;2.80;;;6.20;80.60;;;;;;5035783;28;20458;-49
2022/02/23 05:46:33;;;;;;;8.00;2.30;;;6.10;80.80;;;;;;5052976;28;20474;-49
2022/02/23 05:49:00;;;;;;;4.53;2.10;;;6.00;80.90;;;;;;5053211;28;21086;-49
2022/02/23 05:51:35;;;;;;;6.40;2.10;;;6.00;81.00;;;;;;5054287;28;20462;-49
2022/02/23 05:54:04;;;;;;;5.60;2.53;;;5.90;81.10;;;;;;5054840;28;20922;-48
2022/02/23 05:56:31;;;;;;;8.47;2.17;;;5.90;81.10;;;;;;5041513;28;20472;-49
2022/02/23 05:58:58;;;;;;;4.57;1.57;;;5.90;80.90;;;;;;5036165;28;20458;-49
2022/02/23 06:01:25;;;;;;;5.77;1.27;;;5.90;80.80;;;;;;5032120;28;20485;-49
2022/02/23 06:03:52;;;;;;;5.67;1.93;;;5.90;80.90;;;;;;5053094;28;21222;-49
2022/02/23 06:06:19;;;;;;;5.53;2.13;;;5.90;80.90;;;;;;5034001;28;21919;-48
2022/02/23 06:08:45;;;;;;;9.10;2.30;;;5.80;80.90;;;;;;5059331;28;20470;-49
2022/02/23 06:11:15;;;;;;;5.70;2.37;;;5.80;81.10;;;;;;5064523;28;20457;-49
2022/02/23 06:13:42;;;;;;;4.70;1.73;;;5.80;81.00;;;;;;5040735;28;20463;-49
2022/02/23 06:16:09;;;;;;;3.27;1.70;;;5.80;81.10;;;;;;5052123;28;20896;-49
2022/02/23 06:18:36;;;;;;;5.93;2.10;;;5.80;81.40;;;;;;5031450;28;20635;-49
2022/02/23 06:21:03;;;;;;;4.30;2.07;;;5.70;81.50;;;;;;5053668;28;20464;-49
2022/02/23 06:23:32;;;;;;;7.77;3.00;;;5.70;81.50;;;;;;5033326;28;20453;-49
2022/02/23 06:25:59;;;;;;;5.90;2.00;;;5.70;81.50;;;;;;5038203;28;20756;-49
2022/02/23 06:28:27;;;;;;;5.80;2.33;;;5.80;81.60;;;;;;5054950;28;20464;-49
2022/02/23 06:30:53;;;;;;;6.43;2.13;;;5.70;81.60;;;;;;5056160;28;21026;-49
2022/02/23 06:33:23;;;;;;;3.27;1.77;;;5.70;81.70;;;;;;5054007;28;20472;-49
2022/02/23 06:35:50;;;;;;;4.97;2.07;;;5.80;81.70;;;;;;5056831;28;21088;-49
2022/02/23 06:38:18;;;;;;;2.13;1.43;;;5.70;81.90;;;;;;5055435;28;20869;-49
2022/02/23 06:40:50;;;;;;;8.97;3.47;;;5.70;82.00;;;;;;5035784;28;21353;-49
2022/02/23 06:43:18;;;;;;;3.40;2.23;;;5.70;82.10;;;;;;5056336;28;20909;-49
2022/02/23 06:45:47;;;;;;;2.50;1.53;;;5.70;82.20;;;;;;5034694;28;20485;-49
2022/02/23 06:48:14;;;;;;;3.07;1.77;;;5.70;82.40;;;;;;5036844;28;20467;-49
2022/02/23 06:50:41;;;;;;;7.73;2.37;;;5.70;82.30;;;;;;5058499;28;20576;-49
2022/02/23 06:53:09;;;;;;;4.47;2.00;;;5.70;82.40;;;;;;5053962;28;20462;-49
2022/02/23 06:55:36;;;;;;;5.20;2.10;;;5.70;82.40;;;;;;5026663;28;20476;-49
2022/02/23 06:58:02;;;;;;;7.47;2.27;;;5.80;82.60;;;;;;5054262;28;20950;-49
2022/02/23 07:00:36;;;;;;;5.13;2.63;;;5.80;82.50;;;;;;5055803;28;20458;-49
2022/02/23 07:03:03;;;;;;;11.60;3.27;;;5.80;82.50;;;;;;5054842;28;20451;-49
2022/02/23 07:05:30;;;;;;;6.67;2.40;;;5.90;82.60;;;;;;5033684;28;20480;-48
2022/02/23 07:07:58;;;;;;;3.80;1.93;;;5.90;82.70;;;;;;5052628;28;20466;-49
2022/02/23 07:10:30;;;;;;;7.80;2.27;;;5.90;82.70;;;;;;5053477;28;20496;-49
2022/02/23 07:12:58;;;;;;;5.13;2.30;;;5.90;82.80;;;;;;5052573;28;20462;-49
2022/02/23 07:15:26;;;;;;;7.67;4.20;;;5.90;82.90;;;;;;5053288;28;20601;-49
2022/02/23 07:17:53;;;;;;;5.17;2.37;;;5.90;83.00;;;;;;5051263;28;20800;-49
2022/02/23 07:20:22;;;;;;;9.70;2.60;;;5.90;83.10;;;;;;5051043;28;20465;-49
2022/02/23 07:22:51;;;;;;;4.80;2.57;;;5.90;83.20;;;;;;5054412;28;20462;-49
2022/02/23 07:25:18;;;;;;;6.13;2.53;;;5.90;83.30;;;;;;5052295;28;20465;-48
2022/02/23 07:27:46;;;;;;;5.37;2.10;;;6.00;83.30;;;;;;5044167;28;20468;-49
2022/02/23 07:30:16;;;;;;;7.83;2.73;;;6.00;83.30;;;;;;5052361;28;20470;-49
2022/02/23 07:32:48;;;;;;;6.40;1.93;;;6.10;83.30;;;;;;5050357;28;20966;-49
2022/02/23 07:35:15;;;;;;;5.00;1.93;;;6.20;83.20;;;;;;5038098;28;20457;-49
2022/02/23 07:37:43;;;;;;;6.40;2.83;;;6.20;83.40;;;;;;5055608;28;20528;-49
2022/02/23 07:40:14;;;;;;;8.47;3.00;;;6.20;83.30;;;;;;5053286;28;20458;-49
2022/02/23 07:43:03;;;;;;;8.77;2.87;;;6.30;83.40;;;;;;5058785;28;20451;-49
2022/02/23 07:45:37;;;;;;;10.20;2.63;;;6.30;83.50;;;;;;5043774;28;20488;-49
2022/02/23 07:48:04;;;;;;;8.00;2.67;;;6.40;83.60;;;;;;5038542;28;20480;-49
2022/02/23 07:50:32;;;;;;;7.10;3.07;;;6.50;83.50;;;;;;5054166;28;20468;-49
2022/02/23 07:52:59;;;;;;;6.83;2.80;;;6.40;83.70;;;;;;5032911;28;20545;-49
2022/02/23 07:55:27;;;;;;;4.50;2.30;;;6.50;83.80;;;;;;5055767;28;20573;-49
2022/02/23 07:57:55;;;;;;;5.90;2.90;;;6.50;83.90;;;;;;5050870;28;20518;-49
2022/02/23 08:00:22;;;;;;;6.93;2.90;;;6.60;83.80;;;;;;5050558;28;20465;-49
2022/02/23 08:02:49;;;;;;;4.83;2.77;;;6.70;83.70;;;;;;5051052;28;20477;-49
2022/02/23 08:05:16;;;;;;;8.53;3.40;;;6.70;83.10;;;;;;5052362;28;21110;-49
2022/02/23 08:07:43;;;;;;;11.73;3.83;;;6.80;82.50;;;;;;5034397;28;20545;-50
2022/02/23 08:10:09;;;;;;;10.80;4.60;;;6.90;82.50;;;;;;5054694;28;20492;-50
2022/02/23 08:12:36;;;;;;;8.30;3.30;;;6.90;82.20;;;;;;5055237;28;20850;-48
2022/02/23 08:20:38;;;;;;;9.60;3.80;;;7.10;82.20;;;;;;5054885;28;20461;-48
2022/02/23 08:23:05;;;;;;;9.57;4.00;;;7.20;82.10;;;;;;5052512;28;20955;-48
2022/02/23 08:25:32;;;;;;;11.33;3.60;;;7.30;82.00;;;;;;5033644;28;20458;-47
2022/02/23 08:27:58;;;;;;;8.97;3.40;;;7.40;81.60;;;;;;5040867;28;20476;-48
2022/02/23 08:30:26;;;;;;;7.77;3.20;;;7.50;81.50;;;;;;5041284;28;20922;-48
2022/02/23 08:32:53;;;;;;;6.33;3.30;;;7.60;80.70;;;;;;5036306;28;20807;-52
2022/02/23 08:35:42;;;;;;;11.93;3.63;;;7.80;80.40;;;;;;5059368;28;20985;-50
2022/02/23 08:38:11;;;;;;;3.60;2.00;;;7.90;79.50;;;;;;5051768;28;21093;-47
2022/02/23 08:40:41;;;;;;;9.20;2.47;;;8.00;79.10;;;;;;5054455;28;20628;-49
2022/02/23 08:43:08;;;;;;;10.30;3.63;;;8.10;78.20;;;;;;5054627;28;20457;-47
2022/02/23 08:45:35;;;;;;;3.50;2.27;;;8.20;78.40;;;;;;5050991;28;20842;-47
2022/02/23 08:48:07;;;;;;;9.40;2.93;;;8.30;77.80;;;;;;5048738;28;20525;-46
2022/02/23 08:50:34;;;;;;;12.10;3.03;;;8.40;77.40;;;;;;5054764;28;20458;-47
2022/02/23 08:53:01;;;;;;;4.30;2.50;;;8.50;77.80;;;;;;5056305;28;20462;-47
2022/02/23 08:55:28;;;;;;;6.03;3.10;;;8.60;76.70;;;;;;5054708;28;20457;-47
2022/02/23 08:57:58;;;;;;;13.90;3.07;;;8.70;76.90;;;;;;5034142;28;21056;-47
2022/02/23 09:00:25;;;;;;;5.60;3.40;;;8.80;75.30;;;;;;5059101;28;20541;-47
2022/02/23 09:02:55;;;;;;;7.33;3.53;;;8.90;75.60;;;;;;5055826;28;20520;-48
2022/02/23 09:05:22;;;;;;;4.57;2.80;;;8.90;75.70;;;;;;5033275;28;20508;-48
2022/02/23 09:07:49;;;;;;;14.43;4.43;;;8.90;76.50;;;;;;5051422;28;20470;-47
2022/02/23 09:10:16;;;;;;;11.87;3.63;;;9.00;76.50;;;;;;5052896;28;20457;-47
2022/02/23 09:12:47;;;;;;;6.93;2.60;;;9.00;77.10;;;;;;5048628;28;21063;-47
2022/02/23 09:15:14;;;;;;;6.10;3.27;;;9.10;76.50;;;;;;5029691;28;20474;-47
2022/02/23 09:17:42;;;;;;;6.30;2.77;;;9.10;75.80;;;;;;5053014;28;20461;-47
2022/02/23 09:20:10;;;;;;;10.60;4.30;;;9.20;76.50;;;;;;5042391;28;20482;-47
2022/02/23 09:22:36;;;;;;;8.90;3.40;;;9.30;77.20;;;;;;5059228;28;20893;-47
2022/02/23 09:25:05;;;;;;;6.30;3.30;;;9.30;76.40;;;;;;5053871;28;20809;-47
2022/02/23 09:27:35;;;;;;;4.87;3.23;;;9.30;76.20;;;;;;5036494;28;21115;-47
2022/02/23 09:30:11;;;;;;;9.67;3.80;;;9.30;76.00;;;;;;5058436;28;20465;-48
2022/02/23 09:32:39;;;;;;;5.10;2.87;;;9.40;76.60;;;;;;5059846;28;20938;-47
2022/02/23 09:35:11;;;;;;;11.20;3.30;;;9.40;75.10;;;;;;5051998;28;20485;-49
2022/02/23 09:37:38;;;;;;;6.67;2.70;;;9.50;76.00;;;;;;5051451;28;20959;-47
2022/02/23 09:40:15;;;;;;;5.93;2.70;;;9.50;74.80;;;;;;5052929;28;20939;-49
2022/02/23 09:42:42;;;;;;;4.47;2.80;;;9.50;74.60;;;;;;5054749;28;20958;-47
2022/02/23 09:45:11;;;;;;;6.50;2.97;;;9.60;74.60;;;;;;5035562;28;20458;-47
2022/02/23 09:47:41;;;;;;;11.37;3.10;;;9.60;74.50;;;;;;5036000;28;20526;-47
2022/02/23 09:50:21;;;;;;;5.80;2.30;;;9.70;74.10;;;;;;5048386;28;20453;-47
2022/02/23 09:52:50;;;;;;;4.23;2.50;;;9.80;72.80;;;;;;5049381;28;20451;-47
2022/02/23 09:55:17;;;;;;;5.20;2.37;;;9.80;73.40;;;;;;5049137;28;21015;-47
2022/02/23 09:57:45;;;;;;;8.90;3.50;;;9.90;73.70;;;;;;5019888;28;21039;-47
2022/02/23 10:00:12;;;;;;;4.60;3.07;;;10.00;71.90;;;;;;5050271;28;20907;-47
2022/02/23 10:02:39;;;;;;;11.70;4.23;;;10.10;71.10;;;;;;5053275;28;21167;-47
2022/02/23 10:05:06;;;;;;;7.87;3.17;;;10.20;71.10;;;;;;5048316;28;20561;-47
2022/02/23 10:07:38;;;;;;;4.10;2.40;;;10.30;71.40;;;;;;5031802;28;20935;-47
2022/02/23 10:10:08;;;;;;;6.53;2.47;;;10.40;71.70;;;;;;5051589;28;20466;-47
2022/02/23 10:12:37;;;;;;;5.20;3.37;;;10.60;69.80;;;;;;5049065;28;20477;-47
2022/02/23 10:15:12;;;;;;;6.93;2.50;;;10.80;69.90;;;;;;5034381;28;21137;-47
2022/02/23 10:17:44;;;;;;;7.23;2.90;;;11.00;68.50;;;;;;5048876;28;20484;-47
2022/02/23 10:20:34;;;;;;;6.43;2.80;;;11.20;67.50;;;;;;5050694;28;20548;-47
2022/02/23 10:23:17;;;;;;;7.30;2.90;;;11.30;67.40;;;;;;5047235;28;20839;-47
2022/02/23 10:25:52;;;;;;;5.93;2.40;;;11.50;64.20;;;;;;5047174;28;20971;-47
2022/02/23 10:28:24;;;;;;;11.07;3.13;;;11.60;65.60;;;;;;5048907;28;20472;-47
2022/02/23 10:30:54;;;;;;;8.17;2.67;;;11.70;65.70;;;;;;5050427;28;20510;-47
2022/02/23 10:33:27;;;;;;;7.67;2.17;;;11.90;64.30;;;;;;5051473;28;20476;-47
2022/02/23 10:36:21;;;;;;;9.00;2.50;;;12.00;62.00;;;;;;5039328;28;20922;-47
2022/02/23 10:38:57;;;;;;;5.87;2.10;;;12.20;61.50;;;;;;5034914;28;20571;-47
2022/02/23 10:41:32;;;;;;;4.20;2.10;;;12.40;61.40;;;;;;5052090;28;20580;-47
2022/02/23 10:44:03;;;;;;;9.90;3.17;;;12.50;58.00;;;;;;5033499;28;20454;-47
2022/02/23 10:46:30;;;;;;;7.03;1.80;;;12.50;59.40;;;;;;5032831;28;20478;-47
2022/02/23 10:48:59;;;;;;;5.83;2.90;;;12.60;59.60;;;;;;5029850;28;21269;-47
2022/02/23 10:51:32;;;;;;;6.57;2.40;;;12.70;60.50;;;;;;5051025;28;20497;-47
2022/02/23 10:54:17;;;;;;;5.27;2.00;;;12.80;58.90;;;;;;5048970;28;20470;-47
2022/02/23 10:56:44;;;;;;;10.70;2.60;;;12.90;59.00;;;;;;5035333;28;20971;-48
2022/02/23 10:59:17;;;;;;;3.33;1.73;;;13.00;57.40;;;;;;5035933;28;20821;-47
2022/02/23 11:01:45;;;;;;;7.03;2.60;;;13.00;56.60;;;;;;5053919;28;20558;-47
2022/02/23 11:04:12;;;;;;;5.03;2.30;;;12.90;56.90;;;;;;5063585;28;20477;-48
2022/02/23 11:06:40;;;;;;;4.73;1.70;;;12.90;58.30;;;;;;5045446;28;20548;-47
2022/02/23 11:09:10;;;;;;;3.80;1.93;;;13.00;57.40;;;;;;5042232;28;20493;-48
2022/02/23 11:11:37;;;;;;;11.10;2.40;;;13.10;57.40;;;;;;5044246;28;20545;-47
2022/02/23 11:14:09;;;;;;;9.13;2.00;;;13.10;54.90;;;;;;5038404;28;20467;-48
2022/02/23 11:16:37;;;;;;;8.00;2.10;;;13.10;54.90;;;;;;5049743;28;20461;-48
2022/02/23 11:19:06;;;;;;;8.37;3.13;;;13.20;55.50;;;;;;5033693;28;20491;-47
2022/02/23 11:21:36;;;;;;;5.40;2.10;;;13.30;56.20;;;;;;5048121;28;20938;-48
2022/02/23 11:24:07;;;;;;;4.07;1.70;;;13.30;56.80;;;;;;5029738;28;20588;-48
2022/02/23 11:26:36;;;;;;;3.80;2.37;;;13.40;55.50;;;;;;5056978;28;22740;-48
2022/02/23 11:29:16;;;;;;;6.13;2.13;;;13.40;55.50;;;;;;5050829;28;20520;-48
2022/02/23 11:31:50;;;;;;;6.07;2.07;;;13.40;55.50;;;;;;5047955;28;20846;-48
2022/02/23 11:34:19;;;;;;;10.13;1.93;;;13.30;55.10;;;;;;5051511;28;20907;-48
2022/02/23 11:36:49;;;;;;;8.30;2.10;;;13.40;56.60;;;;;;5049602;28;20951;-48
2022/02/23 11:39:21;;;;;;;7.33;1.93;;;13.30;56.30;;;;;;5019162;28;20572;-48
2022/02/23 11:41:54;;;;;;;6.83;2.10;;;13.40;56.50;;;;;;5049791;28;20454;-48
2022/02/23 11:44:27;;;;;;;4.80;1.87;;;13.30;56.40;;;;;;5048036;28;20552;-48
2022/02/23 11:47:21;;;;;;;6.93;2.33;;;13.40;56.80;;;;;;5047047;28;20478;-47
2022/02/23 11:50:16;;;;;;;6.93;3.13;;;13.40;56.60;;;;;;5050369;28;20462;-48
2022/02/23 11:53:11;;;;;;;4.77;1.50;;;13.40;55.00;;;;;;5052502;28;20457;-48
2022/02/23 11:59:46;;;;;;;4.37;2.13;;;13.20;56.10;;;;;;5048999;28;22034;-47
2022/02/23 12:02:14;;;;;;;4.60;1.97;;;13.20;56.10;;;;;;5053233;28;20465;-47
2022/02/23 12:04:52;;;;;;;4.07;1.80;;;13.10;56.30;;;;;;5052305;28;20496;-48
2022/02/23 12:07:19;;;;;;;6.80;1.97;;;13.20;56.20;;;;;;5051897;28;20532;-47
2022/02/23 12:09:51;;;;;;;5.77;1.70;;;13.20;55.30;;;;;;5049865;28;20468;-47
2022/02/23 12:12:41;;;;;;;3.47;1.60;;;13.30;54.40;;;;;;5033286;28;21027;-47
2022/02/23 12:15:35;;;;;;;6.10;2.10;;;13.30;56.30;;;;;;5054057;28;21524;-48
2022/02/23 12:18:12;;;;;;;8.20;2.97;;;13.40;54.70;;;;;;5040394;28;20462;-48
2022/02/23 12:20:41;;;;;;;6.33;1.97;;;13.40;54.50;;;;;;5054172;28;20572;-48
2022/02/23 12:23:20;;;;;;;9.77;2.73;;;13.40;54.60;;;;;;5054546;28;21046;-47
2022/02/23 12:25:49;;;;;;;8.33;1.53;;;13.30;54.70;;;;;;5058087;28;20517;-48
2022/02/23 12:28:19;;;;;;;5.97;1.63;;;13.30;54.10;;;;;;5048807;28;20842;-48
2022/02/23 12:30:59;;;;;;;5.20;1.43;;;13.20;54.80;;;;;;5053687;28;20473;-48
2022/02/23 12:33:26;;;;;;;5.10;1.40;;;13.30;53.80;;;;;;5052355;28;20465;-48
2022/02/23 12:35:56;;;;;;;4.43;1.50;;;13.30;53.60;;;;;;5050994;28;21252;-48
2022/02/23 12:38:29;;;;;;;4.63;1.13;;;13.30;53.30;;;;;;5033779;28;20457;-48
2022/02/23 12:40:58;;;;;;;6.83;3.73;;;13.30;52.80;;;;;;5051494;28;20463;-47
2022/02/23 12:43:28;;;;;;;6.40;2.13;;;13.30;51.80;;;;;;5050995;28;20450;-47
2022/02/23 12:46:00;;;;;;;6.67;1.60;;;13.30;51.80;;;;;;5050768;28;20472;-48
2022/02/23 12:48:31;;;;;;;8.53;2.27;;;13.20;51.90;;;;;;5057739;28;20976;-47
2022/02/23 12:51:06;;;;;;;3.37;1.13;;;13.20;52.30;;;;;;5051562;28;20450;-48
2022/02/23 12:53:36;;;;;;;2.63;1.40;;;13.20;51.90;;;;;;5038839;28;20459;-48
2022/02/23 12:56:19;;;;;;;3.33;1.57;;;13.20;54.00;;;;;;5036732;28;20465;-48
2022/02/23 12:58:47;;;;;;;5.70;2.47;;;13.20;52.90;;;;;;5053259;28;20568;-48
2022/02/23 13:01:26;;;;;;;6.73;2.00;;;13.30;52.90;;;;;;5052838;28;21096;-47
2022/02/23 13:03:56;;;;;;;8.20;1.57;;;13.30;52.80;;;;;;5041169;28;20462;-47
2022/02/23 13:06:32;;;;;;;8.50;1.77;;;13.40;52.70;;;;;;5049139;28;20560;-47
2022/02/23 13:09:02;;;;;;;3.73;1.50;;;13.50;52.10;;;;;;5051786;28;20964;-47
2022/02/23 13:11:44;;;;;;;4.27;1.20;;;13.50;51.50;;;;;;5030505;28;20561;-47
2022/02/23 13:14:14;;;;;;;3.77;1.53;;;13.50;49.50;;;;;;5050378;28;20493;-47